気象予報士の航空気象 とても視程がよい1日でした。

*All archives   *Admin

2009.12.02 (Wed)

とても視程がよい1日でした。

RJTT 020300Z 05003KT CAVOK 13/05 Q1022 RMK A3019


いい天気でしたね。


月



満月が上ってくるのも見ましたよ。


綺麗でした。


富士山もよく見えました。


富士山



しかし、明日から南海上の台風の影響で南岸上に前線を伴った低気圧が発生し天気は雨、日本海の低気圧と上空の寒気との相乗効果で、あさっては西高東低の気圧配置になるようです。


ぶるぶる。




ブログランキングに参加しています。
にほんブログ村 環境ブログ 天気・気象学へ
にほんブログ村
応援クリックをおねがします。


以下、アフィリエイトサイトです。







スポンサーサイト
22:02  |  気象・天気  |  TB(0)  |  CM(0)  |  EDIT  |  Top↑

コメントを投稿する


 管理者だけに表示  (非公開コメント投稿可能)

▲PageTop

この記事のトラックバックURL

→http://weathereucalyptus.blog115.fc2.com/tb.php/317-5c0fbba3
この記事にトラックバックする(FC2ブログユーザー)

この記事へのトラックバック

▲PageTop

 | BLOGTOP |